Time;durP1;ratioP1;P1;durP2;ratioP2;P2;SDS_P1;SDS_P2;PMS_P1;PMS_P2;Temp;Humidity;BMP_temperature;BMP_pressure;BME280_temperature;BME280_humidity;BME280_pressure;Samples;Min_cycle;Max_cycle;Signal;HPM_P1;HPM_P2
2023/11/09 00:00:47;;;;;;;4.80;3.90;;;;;;;10.42;100.00;99969.45;105933;1253;59639;-78
2023/11/09 00:03:14;;;;;;;4.20;3.80;;;;;;;10.35;100.00;99968.66;106080;1251;71644;-78
2023/11/09 00:05:43;;;;;;;3.80;3.50;;;;;;;10.30;100.00;99967.48;106065;1253;63843;-75
2023/11/09 00:08:10;;;;;;;4.10;3.70;;;;;;;10.23;100.00;99967.91;106078;1250;71297;-75
2023/11/09 00:10:37;;;;;;;4.50;4.10;;;;;;;10.16;100.00;99959.33;105990;1253;60463;-78
2023/11/09 00:13:04;;;;;;;4.40;4.00;;;;;;;10.11;100.00;99957.25;105999;1253;59711;-76
2023/11/09 00:15:31;;;;;;;4.10;3.80;;;;;;;10.08;100.00;99959.55;106067;1250;71594;-76
2023/11/09 00:17:59;;;;;;;4.20;3.80;;;;;;;10.04;100.00;99953.89;105933;1253;63832;-76
2023/11/09 00:20:27;;;;;;;4.40;3.80;;;;;;;10.00;100.00;99960.08;106130;1253;72742;-74
2023/11/09 00:22:54;;;;;;;5.00;3.40;;;;;;;9.96;100.00;99962.44;106085;1253;61965;-78
2023/11/09 00:26:46;;;;;;;3.80;3.40;;;;;;;9.92;100.00;99956.62;102426;1293;604143;-75
2023/11/09 00:29:15;;;;;;;3.80;3.50;;;;;;;9.83;100.00;99934.55;104678;1273;61619;-74
2023/11/09 00:31:42;;;;;;;3.80;3.20;;;;;;;9.76;100.00;99930.44;104920;1270;59295;-75
2023/11/09 00:34:12;;;;;;;3.80;3.50;;;;;;;9.72;100.00;99947.30;104938;1270;72261;-77
2023/11/09 00:36:39;;;;;;;3.70;3.40;;;;;;;9.68;100.00;99941.26;104874;1270;63766;-75
2023/11/09 00:39:07;;;;;;;3.90;2.90;;;;;;;9.66;100.00;99930.05;104963;1269;211724;-75
2023/11/09 00:41:33;;;;;;;4.60;2.80;;;;;;;9.62;100.00;99935.94;105212;1266;61877;-77
2023/11/09 00:44:03;;;;;;;4.10;3.10;;;;;;;9.57;100.00;99932.80;105929;1254;60184;-77
2023/11/09 00:46:30;;;;;;;3.10;2.90;;;;;;;9.52;100.00;99923.52;105913;1250;72219;-75
2023/11/09 00:48:57;;;;;;;3.30;2.50;;;;;;;9.47;100.00;99925.02;105928;1256;63976;-75
2023/11/09 00:51:24;;;;;;;3.20;2.90;;;;;;;9.44;100.00;99921.61;105900;1257;72593;-75
2023/11/09 00:53:52;;;;;;;3.40;3.10;;;;;;;9.41;100.00;99934.52;105965;1251;60506;-75
2023/11/09 00:56:19;;;;;;;3.50;3.20;;;;;;;9.39;100.00;99944.27;105854;1251;60117;-76
2023/11/09 00:58:46;;;;;;;3.70;3.30;;;;;;;9.38;100.00;99938.23;105956;1251;71507;-76
2023/11/09 01:01:13;;;;;;;3.00;2.80;;;;;;;9.38;100.00;99939.61;106454;1251;62388;-74
2023/11/09 01:03:39;;;;;;;3.00;2.80;;;;;;;9.36;100.00;99938.52;107493;1251;71563;-75
2023/11/09 01:06:07;;;;;;;2.90;2.70;;;;;;;9.37;100.00;99952.29;108062;1250;61991;-74
2023/11/09 01:08:34;;;;;;;2.80;2.60;;;;;;;9.37;100.00;99964.12;106321;1254;59621;-75
2023/11/09 01:11:03;;;;;;;2.70;2.50;;;;;;;9.36;100.00;99971.31;105949;1254;72815;-76
2023/11/09 01:13:30;;;;;;;2.80;2.60;;;;;;;9.34;100.00;99962.52;106076;1251;63890;-74
2023/11/09 01:15:57;;;;;;;2.80;2.60;;;;;;;9.33;100.00;99962.27;105901;1257;72335;-75
2023/11/09 01:18:24;;;;;;;3.90;2.60;;;;;;;9.31;100.00;99962.38;105898;1254;61747;-75
2023/11/09 01:20:52;;;;;;;2.80;2.40;;;;;;;9.30;100.00;99950.42;106069;1256;59653;-76
2023/11/09 01:23:20;;;;;;;2.70;2.50;;;;;;;9.29;100.00;99946.67;105932;1256;72088;-76
2023/11/09 01:25:47;;;;;;;2.70;2.50;;;;;;;9.28;100.00;99954.75;105983;1254;62517;-77
2023/11/09 01:28:14;;;;;;;2.60;2.40;;;;;;;9.27;100.00;99963.50;106002;1256;71358;-76
2023/11/09 01:30:41;;;;;;;2.70;2.50;;;;;;;9.27;100.00;99971.55;105848;1254;60597;-75
2023/11/09 01:33:08;;;;;;;2.20;2.00;;;;;;;9.27;100.00;99975.91;105818;1254;59698;-76
2023/11/09 01:35:34;;;;;;;2.60;2.40;;;;;;;9.27;100.00;99985.67;105993;1256;72912;-76
2023/11/09 01:38:01;;;;;;;2.40;2.20;;;;;;;9.28;100.00;99984.23;105934;1251;62520;-75
2023/11/09 01:40:28;;;;;;;2.30;2.20;;;;;;;9.30;100.00;99979.41;105842;1251;72752;-75
2023/11/09 01:42:55;;;;;;;3.30;2.30;;;;;;;9.29;100.00;99980.52;105856;1256;62012;-76
2023/11/09 01:45:23;;;;;;;2.50;2.30;;;;;;;9.26;100.00;99983.46;105914;1254;60200;-75
2023/11/09 01:47:50;;;;;;;2.20;2.00;;;;;;;9.25;100.00;99986.71;105855;1256;73742;-75
2023/11/09 01:50:17;;;;;;;2.50;2.30;;;;;;;9.25;100.00;99993.16;105872;1251;62422;-75
2023/11/09 01:52:44;;;;;;;2.50;2.30;;;;;;;9.25;100.00;100004.29;105841;1251;72690;-76
2023/11/09 01:55:11;;;;;;;2.70;2.20;;;;;;;9.26;100.00;100012.78;105892;1256;61867;-77
2023/11/09 01:57:39;;;;;;;3.80;2.90;;;;;;;9.26;100.00;100010.50;105835;1256;59605;-74
2023/11/09 02:00:06;;;;;;;2.90;2.70;;;;;;;9.25;100.00;100011.27;105895;1251;71616;-76
2023/11/09 02:02:40;;;;;;;3.30;3.00;;;;;;;9.25;100.00;100010.57;105964;1256;63876;-78
2023/11/09 02:05:10;;;;;;;3.00;2.80;;;;;;;9.23;100.00;100009.11;105829;1251;72665;-74
2023/11/09 02:07:37;;;;;;;3.20;2.90;;;;;;;9.23;100.00;100009.85;106004;1251;60514;-75
2023/11/09 02:10:07;;;;;;;3.30;2.80;;;;;;;9.25;100.00;100010.95;105905;1251;60258;-77
2023/11/09 02:12:35;;;;;;;3.40;2.60;;;;;;;9.24;100.00;100013.77;105869;1251;74514;-77
2023/11/09 02:15:02;;;;;;;3.20;3.00;;;;;;;9.23;100.00;100010.05;105927;1257;63705;-78
2023/11/09 02:17:29;;;;;;;3.50;2.80;;;;;;;9.22;100.00;100019.13;105852;1253;72731;-76
2023/11/09 02:19:58;;;;;;;2.60;2.40;;;;;;;9.23;100.00;100029.73;105891;1256;60577;-77
2023/11/09 02:22:26;;;;;;;4.30;2.60;;;;;;;9.23;100.00;100037.60;105979;1251;61153;-77
2023/11/09 02:24:55;;;;;;;2.50;2.30;;;;;;;9.22;100.00;100041.97;106079;1251;71716;-74
2023/11/09 02:27:22;;;;;;;2.90;2.30;;;;;;;9.20;100.00;100044.26;105911;1256;63585;-76
2023/11/09 02:29:49;;;;;;;2.40;2.20;;;;;;;9.17;100.00;100054.34;105917;1251;71267;-77
2023/11/09 02:32:17;;;;;;;2.50;2.30;;;;;;;9.17;100.00;100056.84;105851;1256;61672;-76
2023/11/09 02:34:45;;;;;;;1.80;1.70;;;;;;;9.16;100.00;100057.37;105869;1257;59649;-76
2023/11/09 02:37:12;;;;;;;2.20;2.00;;;;;;;9.16;100.00;100065.23;105785;1251;73064;-75
2023/11/09 02:39:39;;;;;;;4.80;2.30;;;;;;;9.16;100.00;100076.94;105914;1256;64601;-75
2023/11/09 02:42:07;;;;;;;2.20;2.00;;;;;;;9.15;100.00;100080.84;105884;1251;72699;-75
2023/11/09 02:44:33;;;;;;;1.90;1.80;;;;;;;9.15;100.00;100085.35;105844;1251;60570;-76
2023/11/09 02:47:01;;;;;;;2.80;2.10;;;;;;;9.15;100.00;100086.41;105893;1251;60391;-77
2023/11/09 02:49:27;;;;;;;3.40;2.30;;;;;;;9.15;100.00;100081.67;105876;1251;73047;-76
2023/11/09 02:51:55;;;;;;;1.60;1.50;;;;;;;9.14;100.00;100079.48;105891;1255;63973;-75
2023/11/09 02:54:22;;;;;;;2.40;1.50;;;;;;;9.13;100.00;100065.92;105858;1251;71055;-75
2023/11/09 02:56:49;;;;;;;1.30;1.20;;;;;;;9.13;100.00;100061.23;105775;1257;61982;-75
2023/11/09 02:59:16;;;;;;;3.90;1.20;;;;;;;9.12;100.00;100060.78;106010;1251;60511;-75
2023/11/09 03:01:44;;;;;;;1.20;1.00;;;;;;;9.12;100.00;100064.42;105896;1251;72090;-76
2023/11/09 03:04:10;;;;;;;0.80;0.80;;;;;;;9.11;100.00;100065.02;105947;1251;63114;-76
2023/11/09 03:06:38;;;;;;;1.00;0.90;;;;;;;9.10;100.00;100061.25;105964;1251;72678;-75
2023/11/09 03:09:07;;;;;;;3.00;0.60;;;;;;;9.10;100.00;100061.61;105918;1255;61958;-75
2023/11/09 03:11:35;;;;;;;1.00;0.70;;;;;;;9.11;100.00;100057.31;106257;1251;60232;-74
2023/11/09 03:14:02;;;;;;;0.70;0.50;;;;;;;9.12;100.00;100054.13;106050;1251;73044;-75
2023/11/09 03:16:29;;;;;;;0.50;0.50;;;;;;;9.12;100.00;100054.81;106293;1251;64368;-76
2023/11/09 03:18:55;;;;;;;0.90;0.60;;;;;;;9.12;100.00;100056.02;106129;1251;71201;-78
2023/11/09 03:21:22;;;;;;;1.20;0.40;;;;;;;9.12;100.00;100064.09;106052;1256;61941;-75
2023/11/09 03:23:50;;;;;;;1.10;0.40;;;;;;;9.10;100.00;100072.02;106004;1251;60877;-76
2023/11/09 03:26:18;;;;;;;0.30;0.30;;;;;;;9.09;100.00;100081.34;106089;1256;72359;-76
2023/11/09 03:28:45;;;;;;;0.50;0.50;;;;;;;9.08;100.00;100082.29;105906;1251;63832;-76
2023/11/09 03:31:11;;;;;;;1.00;0.60;;;;;;;9.05;100.00;100083.52;105916;1251;72509;-76
2023/11/09 03:33:39;;;;;;;1.00;0.90;;;;;;;9.02;100.00;100086.83;105990;1251;60602;-78
2023/11/09 03:36:06;;;;;;;1.90;0.80;;;;;;;8.98;100.00;100093.53;105997;1251;60290;-78
2023/11/09 03:38:33;;;;;;;0.60;0.60;;;;;;;8.95;100.00;100093.23;105821;1256;72971;-76
2023/11/09 03:41:00;;;;;;;0.70;0.70;;;;;;;8.93;100.00;100097.34;105812;1256;63868;-76
2023/11/09 03:43:27;;;;;;;0.60;0.60;;;;;;;8.92;100.00;100101.77;105716;1251;72757;-75
2023/11/09 03:45:54;;;;;;;3.20;1.10;;;;;;;8.91;100.00;100101.65;105816;1253;61798;-75
2023/11/09 03:48:21;;;;;;;0.60;0.60;;;;;;;8.91;100.00;100105.15;105716;1257;59685;-75
2023/11/09 03:50:49;;;;;;;0.60;0.60;;;;;;;8.89;100.00;100108.91;105932;1256;73100;-75
2023/11/09 03:53:16;;;;;;;0.70;0.70;;;;;;;8.89;100.00;100113.61;106881;1251;62640;-74
2023/11/09 03:55:42;;;;;;;1.90;0.70;;;;;;;8.87;100.00;100118.79;109155;1251;71646;-74
2023/11/09 03:58:09;;;;;;;0.70;0.70;;;;;;;8.84;100.00;100123.51;106944;1251;59733;-75
2023/11/09 04:00:38;;;;;;;1.30;0.90;;;;;;;8.82;100.00;100130.42;105913;1251;60070;-77
2023/11/09 04:03:06;;;;;;;0.80;0.60;;;;;;;8.79;100.00;100132.37;106039;1251;72850;-76
2023/11/09 04:05:33;;;;;;;0.50;0.50;;;;;;;8.77;100.00;100134.77;105918;1253;63885;-76
2023/11/09 04:08:01;;;;;;;0.90;0.40;;;;;;;8.76;100.00;100128.35;105920;1251;72531;-79
2023/11/09 04:10:28;;;;;;;0.90;0.60;;;;;;;8.74;100.00;100128.64;106036;1256;61297;-76
2023/11/09 04:12:55;;;;;;;0.80;0.80;;;;;;;8.71;100.00;100131.94;105949;1256;59654;-75
2023/11/09 04:15:23;;;;;;;0.50;0.50;;;;;;;8.70;100.00;100142.83;106061;1250;73130;-77
2023/11/09 04:17:50;;;;;;;0.60;0.60;;;;;;;8.69;100.00;100146.90;105965;1251;62381;-77
2023/11/09 04:20:17;;;;;;;1.00;0.70;;;;;;;8.67;100.00;100148.03;105889;1251;71525;-74
2023/11/09 04:22:47;;;;;;;2.60;0.70;;;;;;;8.66;100.00;100150.77;105953;1253;61081;-75
2023/11/09 04:25:14;;;;;;;1.40;0.60;;;;;;;8.64;100.00;100153.80;105981;1257;59709;-77
2023/11/09 04:27:42;;;;;;;0.70;0.70;;;;;;;8.64;100.00;100160.27;105981;1251;73106;-76
2023/11/09 04:30:15;;;;;;;1.40;1.00;;;;;;;8.63;100.00;100158.27;105871;1251;62384;-76
2023/11/09 04:32:42;;;;;;;0.80;0.80;;;;;;;8.62;100.00;100158.09;105904;1251;72712;-74
2023/11/09 04:35:09;;;;;;;2.10;1.60;;;;;;;8.62;100.00;100161.62;106032;1251;60539;-76
2023/11/09 04:37:41;;;;;;;1.30;0.90;;;;;;;8.59;100.00;100167.15;106040;1251;60620;-76
2023/11/09 04:40:15;;;;;;;2.50;1.00;;;;;;;8.57;100.00;100171.30;105893;1251;73839;-77
2023/11/09 04:42:44;;;;;;;1.00;0.90;;;;;;;8.55;100.00;100172.31;105872;1251;62494;-76
2023/11/09 04:45:12;;;;;;;1.20;1.10;;;;;;;8.52;100.00;100172.80;105917;1256;71372;-77
2023/11/09 04:47:45;;;;;;;0.70;0.70;;;;;;;8.51;100.00;100182.13;105917;1251;60459;-76
2023/11/09 04:50:17;;;;;;;1.20;0.80;;;;;;;8.49;100.00;100180.33;105951;1256;60354;-75
2023/11/09 04:52:44;;;;;;;1.20;1.10;;;;;;;8.48;100.00;100183.82;105969;1251;73762;-76
2023/11/09 04:55:20;;;;;;;2.40;1.00;;;;;;;8.49;100.00;100191.27;106556;1256;63790;-75
2023/11/09 05:08:52;;;;;;;2.70;1.60;;;;;;;8.34;100.00;100223.48;105960;1257;63842;-79
2023/11/09 05:11:20;;;;;;;1.20;1.10;;;;;;;8.33;100.00;100230.67;105891;1256;72656;-76
2023/11/09 05:13:47;;;;;;;1.10;1.00;;;;;;;8.33;100.00;100231.70;105942;1255;60543;-78
2023/11/09 05:16:14;;;;;;;1.70;1.00;;;;;;;8.34;100.00;100237.92;105925;1251;60456;-75
2023/11/09 05:18:43;;;;;;;1.90;1.80;;;;;;;8.35;100.00;100243.95;105833;1251;73864;-76
2023/11/09 05:21:10;;;;;;;1.90;1.40;;;;;;;8.37;100.00;100247.52;105805;1255;63607;-76
2023/11/09 05:23:37;;;;;;;2.40;1.70;;;;;;;8.39;100.00;100247.60;105828;1251;71576;-74
2023/11/09 05:26:04;;;;;;;2.00;1.80;;;;;;;8.40;100.00;100254.15;105908;1257;60353;-74
2023/11/09 05:28:31;;;;;;;6.10;1.80;;;;;;;8.42;100.00;100259.80;105957;1257;60421;-77
2023/11/09 05:30:58;;;;;;;4.20;1.70;;;;;;;8.44;100.00;100269.11;106045;1256;73611;-75
2023/11/09 05:33:29;;;;;;;1.90;1.70;;;;;;;8.46;100.00;100271.59;105860;1254;63732;-76
2023/11/09 05:35:57;;;;;;;2.40;1.80;;;;;;;8.48;100.00;100274.08;105923;1251;72660;-76
2023/11/09 05:38:24;;;;;;;1.90;1.50;;;;;;;8.51;100.00;100276.00;105893;1255;61012;-75
2023/11/09 05:40:52;;;;;;;1.80;1.70;;;;;;;8.54;100.00;100278.79;105953;1251;60482;-76
2023/11/09 05:43:19;;;;;;;2.10;1.90;;;;;;;8.56;100.00;100277.64;105993;1251;73779;-77
2023/11/09 05:45:46;;;;;;;2.20;2.00;;;;;;;8.59;100.00;100283.92;105871;1254;63832;-76
2023/11/09 05:48:14;;;;;;;3.00;2.00;;;;;;;8.62;100.00;100285.33;106033;1251;72599;-79
2023/11/09 05:50:41;;;;;;;3.20;1.50;;;;;;;8.65;100.00;100292.45;105913;1251;60444;-76
2023/11/09 05:53:08;;;;;;;3.30;2.30;;;;;;;8.69;100.00;100296.79;105941;1251;60520;-78
2023/11/09 05:55:35;;;;;;;4.20;2.30;;;;;;;8.70;100.00;100302.79;106015;1251;74006;-76
2023/11/09 05:58:03;;;;;;;2.10;1.90;;;;;;;8.72;100.00;100297.98;105896;1256;63785;-75
2023/11/09 06:00:33;;;;;;;3.90;2.90;;;;;;;8.74;100.00;100291.08;105834;1256;72680;-78
2023/11/09 06:03:00;;;;;;;2.40;2.20;;;;;;;8.76;100.00;100291.31;105980;1257;60462;-77
2023/11/09 06:05:28;;;;;;;2.60;2.40;;;;;;;8.78;100.00;100293.45;106014;1251;60455;-77
2023/11/09 06:07:56;;;;;;;3.30;3.00;;;;;;;8.82;100.00;100291.17;106008;1255;73613;-76
2023/11/09 06:10:25;;;;;;;3.60;3.30;;;;;;;8.83;100.00;100298.04;105937;1254;63951;-76
2023/11/09 06:12:52;;;;;;;2.80;2.60;;;;;;;8.83;100.00;100302.26;105967;1251;72440;-77
2023/11/09 06:15:20;;;;;;;3.70;3.40;;;;;;;8.83;100.00;100306.59;105966;1256;61197;-76
2023/11/09 06:17:47;;;;;;;3.20;2.90;;;;;;;8.83;100.00;100314.60;106006;1256;60444;-76
2023/11/09 06:20:17;;;;;;;3.60;3.30;;;;;;;8.84;100.00;100320.67;105880;1252;73951;-77
2023/11/09 06:22:44;;;;;;;4.90;3.40;;;;;;;8.84;100.00;100325.52;106434;1251;62687;-77
2023/11/09 06:25:12;;;;;;;3.70;3.40;;;;;;;8.85;100.00;100331.23;106404;1256;72723;-76
2023/11/09 06:27:39;;;;;;;4.10;3.70;;;;;;;8.86;100.00;100330.52;105919;1251;60431;-79
2023/11/09 06:30:07;;;;;;;4.50;4.20;;;;;;;8.86;100.00;100330.46;105936;1251;60428;-76
2023/11/09 06:32:34;;;;;;;4.90;3.70;;;;;;;8.88;100.00;100331.93;106071;1251;73925;-76
2023/11/09 06:35:01;;;;;;;4.60;4.20;;;;;;;8.90;100.00;100330.43;105933;1257;63376;-76
2023/11/09 06:37:30;;;;;;;4.50;3.20;;;;;;;8.93;100.00;100336.36;105986;1251;72470;-76
2023/11/09 06:39:58;;;;;;;5.00;4.40;;;;;;;8.96;100.00;100334.27;106104;1252;60780;-77
2023/11/09 06:42:25;;;;;;;3.80;3.60;;;;;;;8.98;100.00;100344.07;107071;1251;60546;-76
2023/11/09 06:44:54;;;;;;;4.90;4.40;;;;;;;9.00;100.00;100346.21;107144;1251;73784;-77
2023/11/09 06:47:21;;;;;;;3.50;3.20;;;;;;;9.01;100.00;100351.40;105901;1255;63918;-79
2023/11/09 06:49:48;;;;;;;4.70;4.20;;;;;;;9.01;100.00;100353.52;105918;1251;72641;-78
2023/11/09 06:52:15;;;;;;;4.40;4.00;;;;;;;9.00;100.00;100359.52;105980;1256;62006;-76
2023/11/09 06:54:42;;;;;;;4.20;3.80;;;;;;;8.99;100.00;100364.98;105890;1255;60434;-80
2023/11/09 06:57:11;;;;;;;3.60;3.30;;;;;;;8.99;100.00;100368.81;105970;1255;74148;-77
2023/11/09 06:59:37;;;;;;;5.70;4.10;;;;;;;8.99;100.00;100369.67;105802;1256;63684;-77
2023/11/09 07:02:06;;;;;;;4.40;4.00;;;;;;;9.00;100.00;100375.70;105875;1251;72690;-78
2023/11/09 07:04:34;;;;;;;4.90;4.10;;;;;;;9.02;100.00;100373.14;105898;1254;61751;-78
2023/11/09 07:07:02;;;;;;;3.60;3.30;;;;;;;9.03;100.00;100378.52;106015;1251;60446;-79
2023/11/09 07:09:29;;;;;;;5.70;3.90;;;;;;;9.05;100.00;100380.69;105952;1254;73661;-77
2023/11/09 07:11:56;;;;;;;4.50;4.00;;;;;;;9.07;100.00;100384.04;106037;1251;64246;-80
2023/11/09 07:14:23;;;;;;;8.50;5.30;;;;;;;9.08;100.00;100387.79;105833;1251;73079;-78
2023/11/09 07:16:52;;;;;;;4.30;3.30;;;;;;;9.11;100.00;100392.16;105911;1256;61016;-78
2023/11/09 07:19:20;;;;;;;4.00;3.60;;;;;;;9.15;100.00;100394.73;106039;1251;60521;-80
2023/11/09 07:21:47;;;;;;;3.70;3.40;;;;;;;9.16;100.00;100400.77;105903;1252;74267;-76
2023/11/09 07:24:17;;;;;;;4.30;3.70;;;;;;;9.18;100.00;100401.56;105974;1255;63744;-75
2023/11/09 07:26:44;;;;;;;4.50;3.30;;;;;;;9.17;100.00;100407.34;105897;1254;72674;-76
2023/11/09 07:29:11;;;;;;;4.10;3.70;;;;;;;9.17;100.00;100407.21;105950;1255;62038;-76
2023/11/09 07:31:40;;;;;;;2.80;2.60;;;;;;;9.14;100.00;100408.20;106231;1251;60434;-76
2023/11/09 07:34:07;;;;;;;4.00;3.60;;;;;;;9.13;100.00;100414.18;105830;1251;73846;-76
2023/11/09 07:36:34;;;;;;;3.50;3.20;;;;;;;9.13;100.00;100409.29;105847;1255;63765;-79
2023/11/09 07:39:03;;;;;;;4.90;3.00;;;;;;;9.17;100.00;100413.46;105913;1251;72695;-78
2023/11/09 07:41:32;;;;;;;4.10;3.00;;;;;;;9.24;100.00;100413.91;106020;1255;62036;-74
2023/11/09 07:44:00;;;;;;;3.90;2.80;;;;;;;9.34;100.00;100420.30;105962;1256;60430;-76
2023/11/09 07:46:27;;;;;;;2.70;2.50;;;;;;;9.49;100.00;100419.98;105960;1251;73702;-78
2023/11/09 07:48:57;;;;;;;2.50;1.90;;;;;;;9.64;100.00;100425.34;105990;1255;65527;-78
2023/11/09 07:51:24;;;;;;;2.50;1.90;;;;;;;9.76;100.00;100426.20;105999;1251;73766;-77
2023/11/09 07:53:51;;;;;;;4.40;2.30;;;;;;;9.85;100.00;100425.38;105912;1255;60507;-77
2023/11/09 07:56:18;;;;;;;2.40;2.20;;;;;;;9.94;100.00;100423.57;105979;1251;60543;-78
2023/11/09 07:58:45;;;;;;;1.90;1.60;;;;;;;10.03;100.00;100425.83;105867;1256;74745;-76
2023/11/09 08:01:13;;;;;;;2.10;1.80;;;;;;;10.11;100.00;100430.08;105914;1255;61739;-77
2023/11/09 08:03:40;;;;;;;3.20;2.20;;;;;;;10.21;100.00;100436.80;105988;1251;72730;-80
2023/11/09 08:06:07;;;;;;;1.60;1.30;;;;;;;10.30;100.00;100442.19;105912;1251;61697;-78
2023/11/09 08:08:35;;;;;;;2.40;1.40;;;;;;;10.38;100.00;100444.31;105935;1251;60552;-78
2023/11/09 08:11:02;;;;;;;3.90;1.80;;;;;;;10.43;100.00;100446.67;105859;1251;74419;-80
2023/11/09 08:13:29;;;;;;;2.30;1.90;;;;;;;10.45;100.00;100451.42;105910;1251;62797;-79
2023/11/09 08:15:58;;;;;;;2.90;2.10;;;;;;;10.45;100.00;100458.23;105849;1253;73308;-78
2023/11/09 08:18:28;;;;;;;2.40;1.90;;;;;;;10.45;100.00;100462.24;105949;1256;62094;-78
2023/11/09 08:20:59;;;;;;;2.10;1.60;;;;;;;10.46;100.00;100462.73;105918;1255;60437;-78
2023/11/09 08:23:33;;;;;;;4.20;1.80;;;;;;;10.47;100.00;100464.21;105901;1251;73663;-79
2023/11/09 08:26:00;;;;;;;2.20;1.70;;;;;;;10.49;100.00;100469.17;105847;1256;64005;-79
2023/11/09 08:28:27;;;;;;;1.10;1.00;;;;;;;10.54;100.00;100468.31;105947;1255;71468;-79
2023/11/09 08:30:58;;;;;;;2.60;1.40;;;;;;;10.56;100.00;100473.43;105936;1251;61888;-79
2023/11/09 08:33:29;;;;;;;3.20;2.50;;;;;;;10.56;100.00;100474.98;105933;1251;60469;-77
2023/11/09 08:36:31;;;;;;;2.70;1.50;;;;;;;10.58;100.00;100486.42;106108;1254;74197;-76
2023/11/09 08:38:58;;;;;;;3.40;1.60;;;;;;;10.57;100.00;100487.52;106292;1251;63982;-78
2023/11/09 08:41:26;;;;;;;2.50;1.40;;;;;;;10.53;100.00;100489.53;105953;1251;71433;-75
2023/11/09 08:43:56;;;;;;;2.50;1.10;;;;;;;10.50;100.00;100487.09;105942;1256;62120;-76
2023/11/09 08:46:24;;;;;;;3.00;1.40;;;;;;;10.47;100.00;100490.26;105859;1256;60410;-78
2023/11/09 08:48:51;;;;;;;2.20;1.30;;;;;;;10.41;100.00;100489.40;105907;1253;72869;-77
2023/11/09 08:51:18;;;;;;;3.80;1.40;;;;;;;10.34;100.00;100492.27;105972;1257;62548;-78
2023/11/09 08:53:46;;;;;;;2.70;1.40;;;;;;;10.31;100.00;100493.54;105944;1254;72405;-78
2023/11/09 08:56:17;;;;;;;6.20;1.50;;;;;;;10.30;100.00;100494.96;105899;1257;61324;-78
2023/11/09 08:58:44;;;;;;;3.00;1.90;;;;;;;10.32;100.00;100491.84;105993;1251;60444;-77
2023/11/09 09:01:18;;;;;;;3.60;1.60;;;;;;;10.35;100.00;100492.89;106093;1251;72991;-80
2023/11/09 09:03:49;;;;;;;2.10;1.40;;;;;;;10.39;100.00;100499.13;105883;1251;63638;-77
2023/11/09 09:06:17;;;;;;;2.70;1.50;;;;;;;10.43;100.00;100503.13;105997;1255;72674;-77
2023/11/09 09:08:45;;;;;;;2.00;1.50;;;;;;;10.48;100.00;100509.42;106011;1255;61932;-77
2023/11/09 09:11:18;;;;;;;2.50;1.60;;;;;;;10.54;100.00;100509.40;105992;1256;60350;-77
2023/11/09 09:13:47;;;;;;;3.40;2.30;;;;;;;10.57;100.00;100511.86;105892;1252;73895;-78
2023/11/09 09:16:16;;;;;;;1.40;1.30;;;;;;;10.67;100.00;100512.79;105956;1256;64110;-76
2023/11/09 09:18:46;;;;;;;3.80;1.50;;;;;;;10.95;100.00;100509.48;106045;1251;71474;-77
2023/11/09 09:21:13;;;;;;;2.50;1.60;;;;;;;11.40;100.00;100513.04;105854;1252;61972;-77
2023/11/09 09:23:41;;;;;;;3.20;1.50;;;;;;;11.83;100.00;100523.77;105986;1256;61592;-76
2023/11/09 09:26:10;;;;;;;4.30;1.50;;;;;;;12.23;100.00;100532.09;105942;1251;74942;-79
2023/11/09 09:28:47;;;;;;;1.90;1.40;;;;;;;12.63;100.00;100538.63;105957;1255;63702;-77
2023/11/09 09:31:14;;;;;;;2.70;1.30;;;;;;;13.11;100.00;100531.89;105836;1251;72518;-82
2023/11/09 09:33:42;;;;;;;4.20;1.20;;;;;;;13.46;100.00;100536.05;105945;1251;60520;-78
2023/11/09 09:36:12;;;;;;;4.40;1.10;;;;;;;13.57;100.00;100542.67;105953;1256;60546;-79
2023/11/09 09:38:39;;;;;;;2.60;1.20;;;;;;;13.71;100.00;100546.38;105918;1252;72927;-79
2023/11/09 09:41:10;;;;;;;2.10;1.30;;;;;;;14.03;100.00;100550.09;105896;1255;64027;-77
2023/11/09 09:43:40;;;;;;;1.40;1.20;;;;;;;14.41;100.00;100557.08;105954;1251;72475;-78
2023/11/09 09:46:12;;;;;;;2.90;0.90;;;;;;;14.82;100.00;100557.89;105946;1256;60533;-78
2023/11/09 09:48:44;;;;;;;2.30;1.10;;;;;;;15.29;100.00;100556.81;105915;1251;60571;-80
2023/11/09 09:51:15;;;;;;;1.90;1.00;;;;;;;15.70;97.31;100556.17;105917;1256;73765;-79
2023/11/09 09:53:42;;;;;;;2.60;1.30;;;;;;;15.87;89.32;100557.24;105947;1251;64695;-77
2023/11/09 09:56:10;;;;;;;2.30;1.10;;;;;;;15.82;90.17;100559.56;105890;1256;72495;-75
2023/11/09 09:58:40;;;;;;;3.60;1.60;;;;;;;15.73;90.32;100557.63;105914;1255;60540;-78
2023/11/09 10:01:12;;;;;;;5.40;1.30;;;;;;;15.83;91.58;100560.42;105948;1257;60533;-80
2023/11/09 10:03:38;;;;;;;2.00;0.90;;;;;;;15.87;91.59;100564.45;105980;1251;73194;-79
2023/11/09 10:06:06;;;;;;;3.60;1.20;;;;;;;15.90;87.13;100576.41;105895;1255;63227;-76
2023/11/09 10:08:33;;;;;;;3.00;1.50;;;;;;;15.73;89.06;100573.73;105876;1256;72638;-76
2023/11/09 10:11:01;;;;;;;3.10;1.50;;;;;;;15.52;95.11;100583.66;105992;1256;60566;-78
2023/11/09 10:13:30;;;;;;;3.30;1.50;;;;;;;15.46;94.53;100587.36;105961;1251;60457;-79
2023/11/09 10:15:58;;;;;;;2.80;1.70;;;;;;;15.35;90.84;100590.74;105926;1251;73990;-75
2023/11/09 10:18:33;;;;;;;3.00;1.90;;;;;;;15.21;93.14;100596.39;105925;1257;62285;-77
2023/11/09 10:21:03;;;;;;;4.10;1.60;;;;;;;15.23;94.65;100597.81;105973;1256;72093;-78
2023/11/09 10:23:30;;;;;;;3.90;1.10;;;;;;;15.34;89.77;100604.31;105957;1251;60501;-76
2023/11/09 10:26:04;;;;;;;1.20;0.60;;;;;;;15.29;85.89;100604.73;105944;1251;60533;-76
2023/11/09 10:28:32;;;;;;;2.90;0.90;;;;;;;15.32;87.54;100611.70;105797;1258;73741;-76
2023/11/09 10:31:00;;;;;;;3.50;1.00;;;;;;;15.47;87.40;100611.04;105902;1254;63802;-76
2023/11/09 10:33:28;;;;;;;1.50;0.90;;;;;;;15.68;87.85;100616.75;105896;1257;72024;-75
2023/11/09 10:35:56;;;;;;;2.40;0.90;;;;;;;15.91;86.12;100622.88;105971;1255;61045;-76
2023/11/09 10:38:24;;;;;;;3.00;1.10;;;;;;;16.09;84.14;100625.06;105896;1256;60433;-77
2023/11/09 10:40:54;;;;;;;2.20;1.70;;;;;;;16.10;82.07;100623.54;105855;1256;73881;-78
2023/11/09 10:43:42;;;;;;;5.10;2.50;;;;;;;15.88;84.44;100626.76;105953;1256;63897;-76
2023/11/09 10:46:09;;;;;;;1.10;1.00;;;;;;;15.74;87.92;100630.37;105990;1254;73659;-77
2023/11/09 10:48:40;;;;;;;3.90;1.40;;;;;;;15.79;89.30;100635.61;105933;1256;60476;-78
2023/11/09 10:51:09;;;;;;;1.50;1.10;;;;;;;15.84;86.62;100641.23;105959;1251;60344;-76
2023/11/09 10:53:37;;;;;;;2.50;1.30;;;;;;;15.76;83.20;100638.70;105863;1257;74801;-76
2023/11/09 10:56:09;;;;;;;3.90;1.30;;;;;;;15.56;84.80;100643.46;105808;1259;63665;-76
2023/11/09 10:58:40;;;;;;;1.90;1.60;;;;;;;15.33;87.74;100644.25;105925;1251;71970;-77
2023/11/09 11:01:07;;;;;;;1.90;1.60;;;;;;;15.13;90.13;100648.64;105883;1256;60701;-78
2023/11/09 11:03:50;;;;;;;1.80;1.50;;;;;;;14.90;91.01;100652.93;105932;1256;60540;-76
2023/11/09 11:06:23;;;;;;;5.50;1.60;;;;;;;14.51;92.58;100661.52;105923;1255;72708;-77
2023/11/09 11:08:54;;;;;;;1.70;1.50;;;;;;;14.18;98.06;100662.18;105985;1251;63899;-77
2023/11/09 11:11:24;;;;;;;1.60;1.50;;;;;;;13.96;100.00;100661.00;105952;1256;72883;-81
2023/11/09 11:13:57;;;;;;;5.10;1.60;;;;;;;13.80;100.00;100670.10;105871;1257;60453;-77
2023/11/09 11:16:24;;;;;;;1.80;1.60;;;;;;;13.60;100.00;100678.54;105889;1256;60424;-75
2023/11/09 11:18:54;;;;;;;2.90;1.90;;;;;;;13.41;100.00;100677.46;106592;1251;73402;-76
2023/11/09 11:21:55;;;;;;;1.90;1.40;;;;;;;13.32;100.00;100677.74;105872;1257;63262;-74
2023/11/09 11:24:44;;;;;;;4.40;1.90;;;;;;;13.18;100.00;100679.04;105208;1264;71922;-75
2023/11/09 11:27:14;;;;;;;3.00;2.20;;;;;;;13.07;100.00;100684.20;105194;1264;61294;-74
2023/11/09 11:29:48;;;;;;;3.90;2.60;;;;;;;12.90;100.00;100687.79;105173;1261;60728;-75
2023/11/09 11:32:16;;;;;;;3.90;2.50;;;;;;;12.73;100.00;100684.73;105156;1264;73843;-74
2023/11/09 11:34:57;;;;;;;3.20;2.50;;;;;;;12.63;100.00;100692.64;105121;1265;63874;-76